GVAC/SID METAR and TAF weather

Enter ICAO airport designator
Station Type Date Time Source
GVAC METAR 2018/07/21 04:00 UTC NOAA

GVAC 210400Z 02006KT 9999 FEW013 BKN100 24/22 Q1014 NOSIG


Station Type Date Time Source
GVAC Decoded METAR 2018/07/21 04:00 UTC NOAA

Sal, Cape Verde (GVAC) 16-44N 022-57W 55M
Jul 21, 2018 - 12:00 AM EDT / 2018.07.21 0400 UTC
Wind: from the NNE (020 degrees) at 7 MPH (6 KT):0
Visibility: greater than 7 mile(s):0
Sky conditions: mostly cloudy
Temperature: 75 F (24 C)
Dew Point: 71 F (22 C)
Relative Humidity: 88%
Pressure (altimeter): 29.94 in. Hg (1014 hPa)
ob: GVAC 210400Z 02006KT 9999 FEW013 BKN100 24/22 Q1014 NOSIG
cycle: 4

Station Type Date Time Source
GVAC TAF 2018/07/21 00:00 UTC NOAA

TAF GVAC 202300Z 2100/2206 01006KT 9999 FEW013
BECMG 2111/2113 01014KT


Example: see airport list